Time;durP1;ratioP1;P1;durP2;ratioP2;P2;SDS_P1;SDS_P2;PMS_P1;PMS_P2;Temp;Humidity;BMP_temperature;BMP_pressure;BME280_temperature;BME280_humidity;BME280_pressure;Samples;Min_cycle;Max_cycle;Signal;HPM_P1;HPM_P2
2021/05/24 21:55:56;;;;;;;13.20;3.60;;;;;;;21.09;53.06;94287.69;5030884;27;1319406;-87
2021/05/24 21:58:22;;;;;;;12.60;3.22;;;;;;;21.11;52.61;94286.22;5053525;28;20041;-87
2021/05/24 22:00:50;;;;;;;9.30;2.88;;;;;;;21.18;52.68;94294.50;5053515;28;20037;-86
2021/05/24 22:03:16;;;;;;;5.03;3.03;;;;;;;21.14;53.75;94285.56;5069539;27;20504;-86
2021/05/24 22:05:41;;;;;;;8.38;3.72;;;;;;;21.14;53.85;94288.25;5049074;28;20131;-87
2021/05/24 22:08:09;;;;;;;6.88;3.63;;;;;;;21.33;54.14;94292.22;5050186;28;20037;-85
2021/05/24 22:10:36;;;;;;;9.30;4.13;;;;;;;21.36;54.38;94286.13;5049247;28;20731;-85
2021/05/24 22:13:02;;;;;;;9.95;3.88;;;;;;;21.46;54.06;94291.78;5051366;28;20083;-88
2021/05/24 22:15:28;;;;;;;11.45;4.05;;;;;;;21.46;54.23;94291.00;5054376;28;20086;-86
2021/05/24 22:17:54;;;;;;;11.82;4.35;;;;;;;21.43;55.57;94289.03;5051703;28;20129;-86
2021/05/24 22:20:20;;;;;;;8.95;4.43;;;;;;;21.41;55.71;94283.97;5061217;28;20460;-87
2021/05/24 22:22:46;;;;;;;8.43;5.38;;;;;;;21.46;55.95;94291.00;5050908;28;20037;-87
2021/05/24 22:25:13;;;;;;;10.45;7.00;;;;;;;21.40;56.74;94287.81;5047984;28;20036;-89
2021/05/24 22:27:42;;;;;;;18.70;11.68;;;;;;;21.38;56.78;94291.97;5050448;28;20504;-83
2021/05/24 22:30:08;;;;;;;11.93;8.02;;;;;;;21.23;57.17;94271.97;5048672;28;20126;-87
2021/05/24 22:32:34;;;;;;;9.98;6.53;;;;;;;21.33;57.80;94292.22;5044933;28;21376;-88
2021/05/24 22:34:59;;;;;;;9.90;5.97;;;;;;;21.25;58.50;94290.47;5049212;28;20048;-86
2021/05/24 22:37:25;;;;;;;8.85;5.60;;;;;;;21.26;58.76;94297.41;5046366;28;20401;-87
2021/05/24 22:39:50;;;;;;;10.82;5.78;;;;;;;21.30;58.57;94287.53;5052332;28;20389;-88
2021/05/24 22:42:16;;;;;;;8.07;4.43;;;;;;;21.37;57.44;94287.69;5046325;28;20037;-87
2021/05/24 22:44:41;;;;;;;9.57;5.60;;;;;;;21.36;56.71;94289.59;5048169;28;20413;-86
2021/05/24 22:47:07;;;;;;;9.98;5.03;;;;;;;21.33;57.87;94287.63;5064921;28;20029;-86
2021/05/24 22:49:34;;;;;;;12.20;5.72;;;;;;;21.34;58.79;94294.56;5047577;28;20167;-88
2021/05/24 22:51:59;;;;;;;12.50;5.82;;;;;;;21.38;58.71;94298.13;5049808;28;20404;-89
2021/05/24 22:54:25;;;;;;;9.38;4.30;;;;;;;21.27;58.18;94288.19;5048154;28;20045;-89
2021/05/24 22:56:50;;;;;;;6.60;4.63;;;;;;;21.21;58.75;94303.03;5049830;28;20561;-90
2021/05/24 22:59:16;;;;;;;11.45;5.35;;;;;;;21.18;57.57;94291.81;5050080;28;20033;-89
2021/05/24 23:01:41;;;;;;;8.88;5.70;;;;;;;21.28;58.15;94303.22;5047921;28;20033;-91
2021/05/24 23:04:08;;;;;;;9.82;4.93;;;;;;;21.25;58.46;94306.59;5048934;28;20025;-89
2021/05/24 23:06:34;;;;;;;8.85;5.00;;;;;;;21.07;58.73;94306.84;5040140;28;20021;-88
2021/05/24 23:09:01;;;;;;;10.38;3.92;;;;;;;21.14;56.66;94295.53;5040478;28;20041;-88
2021/05/24 23:11:27;;;;;;;10.52;4.57;;;;;;;21.27;58.16;94301.63;5037500;28;20133;-90
2021/05/24 23:13:53;;;;;;;15.90;4.20;;;;;;;21.21;57.51;94303.78;5038919;28;20092;-89
2021/05/24 23:16:21;;;;;;;11.98;4.03;;;;;;;21.13;55.85;94310.06;5034853;28;20435;-89
2021/05/24 23:18:47;;;;;;;8.10;3.40;;;;;;;20.92;56.31;94309.47;5041309;28;20033;-89
2021/05/24 23:21:13;;;;;;;10.40;3.53;;;;;;;20.84;57.09;94316.56;5032521;28;20038;-89
2021/05/24 23:23:39;;;;;;;10.88;6.03;;;;;;;20.72;61.06;94295.88;5033146;28;20373;-89
2021/05/24 23:26:04;;;;;;;5.68;5.07;;;;;;;20.78;60.11;94280.28;5035071;28;20132;-86
2021/05/24 23:28:30;;;;;;;13.65;5.18;;;;;;;20.93;60.34;94300.28;5031840;28;20055;-88
2021/05/24 23:30:55;;;;;;;9.55;5.18;;;;;;;20.97;59.55;94295.78;5037011;28;20454;-90
2021/05/24 23:33:21;;;;;;;7.43;4.47;;;;;;;20.94;59.72;94293.78;5038058;28;20044;-88
2021/05/24 23:35:46;;;;;;;8.05;3.65;;;;;;;20.73;58.00;94265.19;5033134;28;20347;-90
2021/05/24 23:38:12;;;;;;;8.38;3.63;;;;;;;20.66;57.97;94285.72;5035694;28;20056;-90
2021/05/24 23:40:37;;;;;;;9.55;3.80;;;;;;;20.53;58.12;94289.53;5033179;28;20042;-89
2021/05/24 23:43:04;;;;;;;11.75;3.35;;;;;;;20.31;59.51;94285.44;5034373;28;20056;-89
2021/05/24 23:45:30;;;;;;;10.85;4.40;;;;;;;20.26;59.42;94280.25;5037002;28;20025;-89
2021/05/24 23:47:56;;;;;;;6.40;3.38;;;;;;;20.22;59.44;94292.78;5035587;28;20091;-90
2021/05/24 23:50:22;;;;;;;12.40;3.60;;;;;;;20.16;60.25;94300.28;5035321;28;20456;-90
2021/05/24 23:52:48;;;;;;;14.43;4.32;;;;;;;20.00;61.25;94301.28;5031522;28;20127;-89
2021/05/24 23:55:14;;;;;;;13.95;4.90;;;;;;;19.94;60.98;94292.66;5033254;28;20136;-89
2021/05/24 23:57:41;;;;;;;7.15;4.13;;;;;;;20.03;61.03;94298.72;5040025;28;20385;-89
